Time,TemperatureF,DewpointF,PressureIn,WindDirection,WindDirectionDegrees,WindSpeedMPH,WindSpeedGustMPH,Humidity,HourlyPrecipIn,Conditions,Clouds,dailyrainin,SoftwareType,DateUTC
2013-03-09 00:00:00,26.0,24.8,30.47,WNW,288,0.0,0.0,95,0.00,,OVC OVC///CB,0.00,WUHU216DAVISVP2,2013-03-09 05:00:00,
2013-03-09 00:05:00,25.7,24.5,30.47,WNW,288,0.0,0.0,95,0.00,,OVC OVC///CB,0.00,WUHU216DAVISVP2,2013-03-09 05:05:00,
2013-03-09 00:11:00,25.7,24.8,30.47,WNW,288,0.0,0.0,96,0.00,,OVC OVC///CB,0.00,WUHU216DAVISVP2,2013-03-09 05:11:00,
2013-03-09 00:15:00,25.7,24.8,30.46,WNW,288,0.0,0.0,96,0.00,,OVC OVC///CB,0.00,WUHU216DAVISVP2,2013-03-09 05:15:00,
2013-03-09 00:20:00,25.5,24.6,30.46,WNW,288,0.0,0.0,96,0.00,,OVC OVC///CB,0.00,WUHU216DAVISVP2,2013-03-09 05:20:00,
2013-03-09 00:25:00,25.2,24.0,30.46,WNW,288,0.0,0.0,95,0.00,,OVC OVC///CB,0.00,WUHU216DAVISVP2,2013-03-09 05:25:00,
2013-03-09 00:30:00,24.8,23.9,30.46,WNW,288,0.0,0.0,96,0.00,,OVC OVC///CB,0.00,WUHU216DAVISVP2,2013-03-09 05:30:00,
2013-03-09 00:36:00,24.8,23.9,30.45,WNW,288,0.0,0.0,96,0.00,,OVC OVC///CB,0.00,WUHU216DAVISVP2,2013-03-09 05:36:00,
2013-03-09 00:41:00,25.3,24.6,30.45,WNW,288,0.0,0.0,97,0.00,,OVC OVC///CB,0.00,WUHU216DAVISVP2,2013-03-09 05:41:00,
2013-03-09 00:46:00,25.2,24.3,30.45,WNW,288,0.0,0.0,96,0.00,,OVC OVC///CB,0.00,WUHU216DAVISVP2,2013-03-09 05:46:00,
2013-03-09 00:51:00,25.2,24.5,30.45,WNW,288,0.0,0.0,97,0.00,,OVC OVC///CB,0.00,WUHU216DAVISVP2,2013-03-09 05:51:00,
2013-03-09 00:56:00,25.2,24.5,30.45,WNW,288,0.0,0.0,97,0.00,,OVC OVC///CB,0.00,WUHU216DAVISVP2,2013-03-09 05:56:00,
2013-03-09 01:01:00,25.1,24.4,30.45,WNW,288,0.0,0.0,97,0.00,,OVC OVC///CB,0.00,WUHU216DAVISVP2,2013-03-09 06:01:00,
2013-03-09 01:05:00,25.1,24.4,30.45,WNW,288,0.0,0.0,97,0.00,,OVC OVC///CB,0.00,WUHU216DAVISVP2,2013-03-09 06:05:00,
2013-03-09 01:10:00,25.1,24.4,30.44,NE,36,0.0,1.0,97,0.00,,OVC OVC///CB,0.00,WUHU216DAVISVP2,2013-03-09 06:10:00,
2013-03-09 01:15:00,24.9,24.2,30.44,NE,35,0.0,1.0,97,0.00,,OVC OVC///CB,0.00,WUHU216DAVISVP2,2013-03-09 06:15:00,
2013-03-09 01:20:00,24.8,24.1,30.44,NE,36,0.0,1.0,97,0.00,,OVC OVC///CB,0.00,WUHU216DAVISVP2,2013-03-09 06:20:00,
2013-03-09 01:25:00,24.7,24.0,30.44,NE,36,0.0,1.0,97,0.00,,OVC OVC///CB,0.00,WUHU216DAVISVP2,2013-03-09 06:25:00,
2013-03-09 01:30:00,24.5,23.8,30.44,NE,36,0.0,0.0,97,0.00,,OVC OVC///CB,0.00,WUHU216DAVISVP2,2013-03-09 06:30:00,
2013-03-09 01:35:00,24.6,23.9,30.44,NE,36,0.0,0.0,97,0.00,,OVC OVC///CB,0.00,WUHU216DAVISVP2,2013-03-09 06:35:00,
2013-03-09 01:40:00,24.4,23.7,30.44,NE,35,0.0,0.0,97,0.00,,OVC OVC///CB,0.00,WUHU216DAVISVP2,2013-03-09 06:40:00,
2013-03-09 01:45:00,24.4,23.7,30.43,NE,36,0.0,0.0,97,0.00,,OVC OVC///CB,0.00,WUHU216DAVISVP2,2013-03-09 06:45:00,
2013-03-09 01:50:00,24.3,23.9,30.44,NE,36,0.0,0.0,98,0.00,,OVC OVC///CB,0.00,WUHU216DAVISVP2,2013-03-09 06:50:00,
2013-03-09 01:55:00,24.2,23.8,30.43,NE,35,0.0,0.0,98,0.00,,OVC OVC///CB,0.00,WUHU216DAVISVP2,2013-03-09 06:55:00,
2013-03-09 02:00:00,24.2,23.8,30.43,NE,36,0.0,0.0,98,0.00,,OVC OVC///CB,0.00,WUHU216DAVISVP2,2013-03-09 07:00:00,
2013-03-09 02:05:00,24.1,23.7,30.43,NE,36,0.0,0.0,98,0.00,,OVC OVC///CB,0.00,WUHU216DAVISVP2,2013-03-09 07:05:00,
2013-03-09 02:10:00,24.1,23.7,30.43,NE,36,0.0,0.0,98,0.00,,OVC OVC///CB,0.00,WUHU216DAVISVP2,2013-03-09 07:10:00,
2013-03-09 02:15:00,23.9,23.5,30.43,NE,35,0.0,0.0,98,0.00,,OVC OVC///CB,0.00,WUHU216DAVISVP2,2013-03-09 07:15:00,
2013-03-09 02:20:00,23.8,23.4,30.43,NE,35,0.0,0.0,98,0.00,,OVC OVC///CB,0.00,WUHU216DAVISVP2,2013-03-09 07:20:00,
2013-03-09 02:25:00,23.7,23.3,30.43,NE,36,0.0,0.0,98,0.00,,OVC OVC///CB,0.00,WUHU216DAVISVP2,2013-03-09 07:25:00,
2013-03-09 02:30:00,23.4,23.0,30.43,NE,36,0.0,0.0,98,0.00,,OVC OVC///CB,0.00,WUHU216DAVISVP2,2013-03-09 07:30:00,
2013-03-09 02:35:00,23.5,23.1,30.43,NE,36,0.0,0.0,98,0.00,,OVC OVC///CB,0.00,WUHU216DAVISVP2,2013-03-09 07:35:00,
2013-03-09 02:40:00,23.4,23.0,30.42,NE,36,0.0,0.0,98,0.00,,OVC OVC///CB,0.00,WUHU216DAVISVP2,2013-03-09 07:40:00,
2013-03-09 02:45:00,23.2,22.8,30.42,NE,36,0.0,0.0,98,0.00,,OVC OVC///CB,0.00,WUHU216DAVISVP2,2013-03-09 07:45:00,
2013-03-09 02:50:00,23.0,22.6,30.42,NE,35,0.0,0.0,98,0.00,,OVC OVC///CB,0.00,WUHU216DAVISVP2,2013-03-09 07:50:00,
2013-03-09 02:55:00,23.0,22.6,30.42,NE,36,0.0,0.0,98,0.00,,OVC OVC///CB,0.00,WUHU216DAVISVP2,2013-03-09 07:55:00,
2013-03-09 03:00:00,23.3,22.9,30.42,NE,35,0.0,0.0,98,0.00,,OVC OVC///CB,0.00,WUHU216DAVISVP2,2013-03-09 08:00:00,
2013-03-09 03:05:00,23.3,23.1,30.42,NE,36,0.0,0.0,99,0.00,,OVC OVC///CB,0.00,WUHU216DAVISVP2,2013-03-09 08:05:00,
2013-03-09 03:10:00,23.5,23.3,30.42,NE,35,0.0,0.0,99,0.00,,OVC OVC///CB,0.00,WUHU216DAVISVP2,2013-03-09 08:10:00,
2013-03-09 03:15:00,23.5,23.3,30.41,NE,36,0.0,0.0,99,0.00,,OVC OVC///CB,0.00,WUHU216DAVISVP2,2013-03-09 08:15:00,
2013-03-09 03:20:00,23.6,23.2,30.41,NE,35,0.0,0.0,98,0.00,,OVC OVC///CB,0.00,WUHU216DAVISVP2,2013-03-09 08:20:00,
2013-03-09 03:25:00,23.7,23.3,30.41,NE,36,0.0,1.0,98,0.00,,OVC OVC///CB,0.00,WUHU216DAVISVP2,2013-03-09 08:25:00,
2013-03-09 03:30:00,23.8,23.4,30.40,NE,36,0.0,1.0,98,0.00,,OVC OVC///CB,0.00,WUHU216DAVISVP2,2013-03-09 08:30:00,
2013-03-09 03:35:00,23.7,23.3,30.40,NE,36,0.0,1.0,98,0.00,,OVC OVC///CB,0.00,WUHU216DAVISVP2,2013-03-09 08:35:00,
2013-03-09 03:40:00,23.5,23.1,30.40,NE,36,0.0,0.0,98,0.00,,OVC OVC///CB,0.00,WUHU216DAVISVP2,2013-03-09 08:40:00,
2013-03-09 03:45:00,23.4,23.0,30.40,NE,36,0.0,0.0,98,0.00,,OVC OVC///CB,0.00,WUHU216DAVISVP2,2013-03-09 08:45:00,
2013-03-09 03:50:00,23.3,22.9,30.40,NE,35,0.0,0.0,98,0.00,,OVC OVC///CB,0.00,WUHU216DAVISVP2,2013-03-09 08:50:00,
2013-03-09 03:55:00,23.1,22.7,30.40,NE,35,0.0,0.0,98,0.00,,OVC OVC///CB,0.00,WUHU216DAVISVP2,2013-03-09 08:55:00,
2013-03-09 04:00:00,23.0,22.6,30.41,NE,35,0.0,0.0,98,0.00,,OVC OVC///CB,0.00,WUHU216DAVISVP2,2013-03-09 09:00:00,
2013-03-09 04:05:00,23.0,22.6,30.41,NNE,15,0.0,0.0,98,0.00,,OVC OVC///CB,0.00,WUHU216DAVISVP2,2013-03-09 09:05:00,
2013-03-09 04:10:00,23.0,22.6,30.41,NNE,16,0.0,0.0,98,0.00,,OVC OVC///CB,0.00,WUHU216DAVISVP2,2013-03-09 09:10:00,
2013-03-09 04:15:00,23.1,22.7,30.41,NNE,16,0.0,0.0,98,0.00,,OVC OVC///CB,0.00,WUHU216DAVISVP2,2013-03-09 09:15:00,
2013-03-09 04:20:00,23.1,22.7,30.41,NNE,16,0.0,0.0,98,0.00,,OVC OVC///CB,0.00,WUHU216DAVISVP2,2013-03-09 09:20:00,
2013-03-09 04:25:00,22.9,22.5,30.41,NNE,16,0.0,0.0,98,0.00,,OVC OVC///CB,0.00,WUHU216DAVISVP2,2013-03-09 09:25:00,
2013-03-09 04:30:00,23.0,22.6,30.40,NNE,16,0.0,0.0,98,0.00,,OVC OVC///CB,0.00,WUHU216DAVISVP2,2013-03-09 09:30:00,
2013-03-09 04:35:00,22.9,22.5,30.41,NNE,15,0.0,0.0,98,0.00,,OVC OVC///CB,0.00,WUHU216DAVISVP2,2013-03-09 09:35:00,
2013-03-09 04:40:00,22.8,22.4,30.41,NNE,16,0.0,0.0,98,0.00,,OVC OVC///CB,0.00,WUHU216DAVISVP2,2013-03-09 09:40:00,
2013-03-09 04:45:00,22.9,22.5,30.41,NNE,16,0.0,0.0,98,0.00,,OVC OVC///CB,0.00,WUHU216DAVISVP2,2013-03-09 09:45:00,
2013-03-09 04:50:00,22.9,22.5,30.41,NNE,16,0.0,0.0,98,0.00,,OVC OVC///CB,0.00,WUHU216DAVISVP2,2013-03-09 09:50:00,
2013-03-09 04:55:00,22.9,22.5,30.41,NNE,16,0.0,0.0,98,0.00,,OVC OVC///CB,0.00,WUHU216DAVISVP2,2013-03-09 09:55:00,
2013-03-09 05:00:00,22.8,22.4,30.41,NNE,16,0.0,0.0,98,0.00,,OVC OVC///CB,0.00,WUHU216DAVISVP2,2013-03-09 10:00:00,
2013-03-09 05:05:00,22.6,22.2,30.41,NNE,15,0.0,0.0,98,0.00,,OVC OVC///CB,0.00,WUHU216DAVISVP2,2013-03-09 10:05:00,
2013-03-09 05:10:00,22.7,22.3,30.42,NNE,16,0.0,0.0,98,0.00,,OVC OVC///CB,0.00,WUHU216DAVISVP2,2013-03-09 10:10:00,
2013-03-09 05:15:00,22.7,22.5,30.42,NNE,15,0.0,0.0,99,0.00,,OVC OVC///CB,0.00,WUHU216DAVISVP2,2013-03-09 10:15:00,
2013-03-09 05:20:00,22.5,22.1,30.42,NNE,16,0.0,0.0,98,0.00,,OVC OVC///CB,0.00,WUHU216DAVISVP2,2013-03-09 10:20:00,
2013-03-09 05:25:00,22.3,21.9,30.42,NNE,16,0.0,0.0,98,0.00,,OVC OVC///CB,0.00,WUHU216DAVISVP2,2013-03-09 10:25:00,
2013-03-09 05:30:00,22.2,21.8,30.42,NNE,16,0.0,0.0,98,0.00,,OVC OVC///CB,0.00,WUHU216DAVISVP2,2013-03-09 10:30:00,
2013-03-09 05:35:00,21.8,21.4,30.42,NNE,15,0.0,0.0,98,0.00,,OVC OVC///CB,0.00,WUHU216DAVISVP2,2013-03-09 10:35:00,
2013-03-09 05:40:00,22.2,22.0,30.42,NNE,16,0.0,0.0,99,0.00,,OVC OVC///CB,0.00,WUHU216DAVISVP2,2013-03-09 10:40:00,
2013-03-09 05:45:00,22.3,22.1,30.42,NNE,15,0.0,0.0,99,0.00,,OVC OVC///CB,0.00,WUHU216DAVISVP2,2013-03-09 10:45:00,
2013-03-09 05:50:00,22.2,22.0,30.41,NNE,16,0.0,0.0,99,0.00,,OVC OVC///CB,0.00,WUHU216DAVISVP2,2013-03-09 10:50:00,
2013-03-09 05:55:00,22.2,21.8,30.42,NNE,16,0.0,0.0,98,0.00,,OVC OVC///CB,0.00,WUHU216DAVISVP2,2013-03-09 10:55:00,
2013-03-09 06:00:00,22.3,21.9,30.41,NNE,16,0.0,0.0,98,0.00,,OVC OVC///CB,0.00,WUHU216DAVISVP2,2013-03-09 11:00:00,
2013-03-09 06:05:00,22.0,21.6,30.41,NNE,16,0.0,0.0,98,0.00,,OVC OVC///CB,0.00,WUHU216DAVISVP2,2013-03-09 11:05:00,
2013-03-09 06:10:00,22.0,21.6,30.41,NNE,16,0.0,0.0,98,0.00,,OVC OVC///CB,0.00,WUHU216DAVISVP2,2013-03-09 11:10:00,
2013-03-09 06:15:00,22.0,21.8,30.41,NNE,16,0.0,0.0,99,0.00,,OVC OVC///CB,0.00,WUHU216DAVISVP2,2013-03-09 11:15:00,
2013-03-09 06:20:00,21.7,21.3,30.42,NNE,15,0.0,0.0,98,0.00,,OVC OVC///CB,0.00,WUHU216DAVISVP2,2013-03-09 11:20:00,
2013-03-09 06:25:00,21.7,21.5,30.42,NNE,15,0.0,0.0,99,0.00,,OVC OVC///CB,0.00,WUHU216DAVISVP2,2013-03-09 11:25:00,
2013-03-09 06:30:00,21.8,21.6,30.42,NNE,16,0.0,0.0,99,0.00,,OVC OVC///CB,0.00,WUHU216DAVISVP2,2013-03-09 11:30:00,
2013-03-09 06:35:00,21.8,21.6,30.42,NNE,15,0.0,0.0,99,0.00,,OVC OVC///CB,0.00,WUHU216DAVISVP2,2013-03-09 11:35:00,
2013-03-09 06:40:00,21.6,21.4,30.42,NNE,16,0.0,0.0,99,0.00,,OVC OVC///CB,0.00,WUHU216DAVISVP2,2013-03-09 11:40:00,
2013-03-09 06:45:00,21.7,21.5,30.42,NNE,16,0.0,0.0,99,0.00,,OVC OVC///CB,0.00,WUHU216DAVISVP2,2013-03-09 11:45:00,
2013-03-09 06:50:00,21.9,21.7,30.42,NNE,15,0.0,0.0,99,0.00,,OVC OVC///CB,0.00,WUHU216DAVISVP2,2013-03-09 11:50:00,
2013-03-09 06:55:00,22.0,21.8,30.42,NNE,15,0.0,0.0,99,0.00,,OVC OVC///CB,0.00,WUHU216DAVISVP2,2013-03-09 11:55:00,
2013-03-09 07:00:00,21.9,21.7,30.42,NNE,15,0.0,0.0,99,0.00,,OVC OVC///CB,0.00,WUHU216DAVISVP2,2013-03-09 12:00:00,
2013-03-09 07:05:00,21.8,21.6,30.42,NNE,16,0.0,0.0,99,0.00,,OVC OVC///CB,0.00,WUHU216DAVISVP2,2013-03-09 12:05:00,
2013-03-09 07:10:00,22.0,21.8,30.42,NNE,15,0.0,0.0,99,0.00,,OVC OVC///CB,0.00,WUHU216DAVISVP2,2013-03-09 12:10:00,
2013-03-09 07:15:00,22.4,22.2,30.42,NNE,16,0.0,0.0,99,0.00,,OVC OVC///CB,0.00,WUHU216DAVISVP2,2013-03-09 12:15:00,
2013-03-09 07:20:00,22.8,22.6,30.43,NNE,16,0.0,0.0,99,0.00,,OVC OVC///CB,0.00,WUHU216DAVISVP2,2013-03-09 12:20:00,
2013-03-09 07:25:00,23.2,23.0,30.43,NNE,16,0.0,0.0,99,0.00,,OVC OVC///CB,0.00,WUHU216DAVISVP2,2013-03-09 12:25:00,
2013-03-09 07:30:00,24.0,23.8,30.42,NNE,15,0.0,0.0,99,0.00,,OVC OVC///CB,0.00,WUHU216DAVISVP2,2013-03-09 12:30:00,
2013-03-09 07:35:00,25.6,25.4,30.42,NNE,16,0.0,0.0,99,0.00,,OVC OVC///CB,0.00,WUHU216DAVISVP2,2013-03-09 12:35:00,
2013-03-09 07:40:00,26.5,26.3,30.43,NNE,16,0.0,0.0,99,0.00,,OVC OVC///CB,0.00,WUHU216DAVISVP2,2013-03-09 12:40:00,
2013-03-09 07:45:00,26.6,26.4,30.42,NNE,16,0.0,0.0,99,0.00,,OVC OVC///CB,0.00,WUHU216DAVISVP2,2013-03-09 12:45:00,
2013-03-09 07:50:00,26.4,26.2,30.42,NNE,16,0.0,0.0,99,0.00,,OVC OVC///CB,0.00,WUHU216DAVISVP2,2013-03-09 12:50:00,
2013-03-09 07:55:00,26.8,26.6,30.42,NNE,15,0.0,0.0,99,0.00,,OVC OVC///CB,0.00,WUHU216DAVISVP2,2013-03-09 12:55:00,
2013-03-09 08:00:00,27.7,27.5,30.42,NNE,16,0.0,1.0,99,0.00,,OVC OVC///CB,0.00,WUHU216DAVISVP2,2013-03-09 13:00:00,
2013-03-09 08:05:00,28.4,28.2,30.42,ESE,104,0.0,1.0,99,0.00,,OVC OVC///CB,0.00,WUHU216DAVISVP2,2013-03-09 13:05:00,
2013-03-09 08:10:00,29.1,28.7,30.42,ESE,104,1.0,1.0,98,0.00,,OVC OVC///CB,0.00,WUHU216DAVISVP2,2013-03-09 13:10:00,
2013-03-09 08:15:00,29.5,28.8,30.42,ESE,105,0.0,1.0,97,0.00,,OVC OVC///CB,0.00,WUHU216DAVISVP2,2013-03-09 13:15:00,
2013-03-09 08:20:00,30.4,29.7,30.42,ESE,105,4.0,4.0,97,0.00,,OVC OVC///CB,0.00,WUHU216DAVISVP2,2013-03-09 13:20:00,
2013-03-09 08:25:00,30.6,29.4,30.42,ESE,113,1.0,5.0,95,0.00,,OVC OVC///CB,0.00,WUHU216DAVISVP2,2013-03-09 13:25:00,
2013-03-09 08:30:00,30.9,29.7,30.42,ESE,112,2.0,5.0,95,0.00,,OVC OVC///CB,0.00,WUHU216DAVISVP2,2013-03-09 13:30:00,
2013-03-09 08:35:00,31.5,30.0,30.42,SE,131,1.0,5.0,94,0.00,,OVC OVC///CB,0.00,WUHU216DAVISVP2,2013-03-09 13:35:00,
2013-03-09 08:40:00,31.9,30.2,30.42,East,93,3.0,4.0,93,0.00,,OVC OVC///CB,0.00,WUHU216DAVISVP2,2013-03-09 13:40:00,
2013-03-09 08:45:00,32.1,30.1,30.42,SE,125,2.0,5.0,92,0.00,,OVC OVC///CB,0.00,WUHU216DAVISVP2,2013-03-09 13:45:00,
2013-03-09 08:50:00,32.6,30.3,30.42,ESE,122,5.0,5.0,91,0.00,,OVC OVC///CB,0.00,WUHU216DAVISVP2,2013-03-09 13:50:00,
2013-03-09 08:55:00,32.8,30.0,30.42,ESE,102,5.0,6.0,89,0.00,,OVC OVC///CB,0.00,WUHU216DAVISVP2,2013-03-09 13:55:00,
2013-03-09 09:00:00,33.1,30.3,30.41,ESE,117,3.0,6.0,89,0.00,,OVC OVC///CB,0.00,WUHU216DAVISVP2,2013-03-09 14:00:00,
2013-03-09 09:05:00,33.3,29.9,30.41,East,83,4.0,8.0,87,0.00,,OVC OVC///CB,0.00,WUHU216DAVISVP2,2013-03-09 14:05:00,
2013-03-09 09:10:00,33.5,30.1,30.41,ESE,103,4.0,8.0,87,0.00,,OVC OVC///CB,0.00,WUHU216DAVISVP2,2013-03-09 14:10:00,
2013-03-09 09:15:00,33.8,30.1,30.41,ESE,120,0.0,7.0,86,0.00,,OVC OVC///CB,0.00,WUHU216DAVISVP2,2013-03-09 14:15:00,
2013-03-09 09:20:00,34.2,30.5,30.41,SE,129,2.0,7.0,86,0.00,,OVC OVC///CB,0.00,WUHU216DAVISVP2,2013-03-09 14:20:00,
2013-03-09 09:25:00,34.7,30.2,30.41,ESE,110,6.0,10.0,83,0.00,,OVC OVC///CB,0.00,WUHU216DAVISVP2,2013-03-09 14:25:00,
2013-03-09 09:30:00,35.2,30.7,30.41,SE,133,1.0,10.0,83,0.00,,OVC OVC///CB,0.00,WUHU216DAVISVP2,2013-03-09 14:30:00,
2013-03-09 09:35:00,35.8,31.2,30.41,ESE,123,1.0,9.0,83,0.00,,OVC OVC///CB,0.00,WUHU216DAVISVP2,2013-03-09 14:35:00,
2013-03-09 09:40:00,36.3,31.2,30.41,SE,127,0.0,9.0,81,0.00,,OVC OVC///CB,0.00,WUHU216DAVISVP2,2013-03-09 14:40:00,
2013-03-09 09:45:00,36.7,30.9,30.41,East,100,3.0,8.0,79,0.00,,OVC OVC///CB,0.00,WUHU216DAVISVP2,2013-03-09 14:45:00,
2013-03-09 09:50:00,36.7,30.6,30.41,ESE,115,3.0,8.0,78,0.00,,OVC OVC///CB,0.00,WUHU216DAVISVP2,2013-03-09 14:50:00,
2013-03-09 09:55:00,36.9,30.2,30.41,South,184,2.0,8.0,76,0.00,,OVC OVC///CB,0.00,WUHU216DAVISVP2,2013-03-09 14:55:00,
2013-03-09 10:00:00,37.5,31.1,30.41,ESE,121,3.0,7.0,77,0.00,,OVC OVC///CB,0.00,WUHU216DAVISVP2,2013-03-09 15:00:00,
2013-03-09 10:05:00,37.9,31.2,30.41,SE,139,4.0,7.0,76,0.00,,OVC OVC///CB,0.00,WUHU216DAVISVP2,2013-03-09 15:05:00,
2013-03-09 10:10:00,38.1,31.1,30.40,SE,145,2.0,7.0,75,0.00,,OVC OVC///CB,0.00,WUHU216DAVISVP2,2013-03-09 15:10:00,
2013-03-09 10:15:00,38.5,31.1,30.41,SSE,165,2.0,7.0,74,0.00,,OVC OVC///CB,0.00,WUHU216DAVISVP2,2013-03-09 15:15:00,
2013-03-09 10:20:00,38.8,31.4,30.41,SSE,160,2.0,6.0,74,0.00,,OVC OVC///CB,0.00,WUHU216DAVISVP2,2013-03-09 15:20:00,
2013-03-09 10:25:00,38.9,31.5,30.40,SE,142,3.0,7.0,74,0.00,,OVC OVC///CB,0.00,WUHU216DAVISVP2,2013-03-09 15:25:00,
2013-03-09 10:30:00,38.9,30.8,30.40,ESE,109,0.0,7.0,72,0.00,,OVC OVC///CB,0.00,WUHU216DAVISVP2,2013-03-09 15:30:00,
2013-03-09 10:35:00,39.3,31.6,30.39,South,185,3.0,6.0,73,0.00,,OVC OVC///CB,0.00,WUHU216DAVISVP2,2013-03-09 15:35:00,
2013-03-09 10:40:00,39.3,31.6,30.39,ESE,109,1.0,6.0,73,0.00,,OVC OVC///CB,0.00,WUHU216DAVISVP2,2013-03-09 15:40:00,
2013-03-09 10:45:00,39.4,31.3,30.39,SSE,158,3.0,7.0,72,0.00,,OVC OVC///CB,0.00,WUHU216DAVISVP2,2013-03-09 15:45:00,
2013-03-09 10:50:00,39.6,31.5,30.39,ENE,65,3.0,7.0,72,0.00,,OVC OVC///CB,0.00,WUHU216DAVISVP2,2013-03-09 15:50:00,
2013-03-09 10:55:00,40.3,32.9,30.38,ESE,108,4.0,7.0,74,0.00,,OVC OVC///CB,0.00,WUHU216DAVISVP2,2013-03-09 15:55:00,
2013-03-09 11:00:00,40.4,32.3,30.38,East,82,8.0,9.0,72,0.00,,OVC OVC///CB,0.00,WUHU216DAVISVP2,2013-03-09 16:00:00,
2013-03-09 11:05:00,40.5,31.7,30.38,ESE,121,5.0,9.0,70,0.00,,OVC OVC///CB,0.00,WUHU216DAVISVP2,2013-03-09 16:05:00,
2013-03-09 11:10:00,40.8,32.0,30.38,SW,228,1.0,9.0,70,0.00,,OVC OVC///CB,0.00,WUHU216DAVISVP2,2013-03-09 16:10:00,
2013-03-09 11:15:00,41.4,32.6,30.38,SE,131,0.0,8.0,70,0.00,,OVC OVC///CB,0.00,WUHU216DAVISVP2,2013-03-09 16:15:00,
2013-03-09 11:20:00,41.3,32.5,30.38,SSE,152,2.0,9.0,70,0.00,,OVC OVC///CB,0.00,WUHU216DAVISVP2,2013-03-09 16:20:00,
2013-03-09 11:25:00,42.0,32.4,30.38,South,186,2.0,9.0,68,0.00,,OVC OVC///CB,0.00,WUHU216DAVISVP2,2013-03-09 16:25:00,
2013-03-09 11:30:00,42.7,32.7,30.38,SW,236,3.0,8.0,67,0.00,,OVC OVC///CB,0.00,WUHU216DAVISVP2,2013-03-09 16:30:00,
2013-03-09 11:35:00,43.1,32.8,30.38,SSW,198,1.0,7.0,66,0.00,,OVC OVC///CB,0.00,WUHU216DAVISVP2,2013-03-09 16:35:00,
2013-03-09 11:40:00,43.5,32.8,30.38,South,169,1.0,7.0,65,0.00,,OVC OVC///CB,0.00,WUHU216DAVISVP2,2013-03-09 16:40:00,
2013-03-09 11:45:00,43.7,32.6,30.37,SW,232,1.0,6.0,64,0.00,,OVC OVC///CB,0.00,WUHU216DAVISVP2,2013-03-09 16:45:00,
2013-03-09 11:50:00,43.9,32.4,30.37,NNE,31,4.0,8.0,63,0.00,,OVC OVC///CB,0.00,WUHU216DAVISVP2,2013-03-09 16:50:00,
2013-03-09 11:55:00,44.3,33.1,30.37,SSE,158,3.0,8.0,64,0.00,,OVC OVC///CB,0.00,WUHU216DAVISVP2,2013-03-09 16:55:00,
2013-03-09 12:00:00,44.1,32.9,30.37,ESE,120,1.0,7.0,64,0.00,,OVC OVC///CB,0.00,WUHU216DAVISVP2,2013-03-09 17:00:00,
2013-03-09 12:05:00,43.9,33.5,30.36,East,87,1.0,7.0,66,0.00,,OVC OVC///CB,0.00,WUHU216DAVISVP2,2013-03-09 17:05:00,
2013-03-09 12:10:00,44.8,34.4,30.36,ESE,122,3.0,6.0,66,0.00,,OVC OVC///CB,0.00,WUHU216DAVISVP2,2013-03-09 17:10:00,
2013-03-09 12:15:00,45.6,34.0,30.36,SW,235,3.0,6.0,63,0.00,,OVC OVC///CB,0.00,WUHU216DAVISVP2,2013-03-09 17:15:00,
2013-03-09 12:20:00,45.4,33.8,30.36,SSW,201,4.0,7.0,63,0.00,,OVC OVC///CB,0.00,WUHU216DAVISVP2,2013-03-09 17:20:00,
2013-03-09 12:25:00,46.0,33.5,30.36,SE,136,1.0,7.0,61,0.00,,OVC OVC///CB,0.00,WUHU216DAVISVP2,2013-03-09 17:25:00,
2013-03-09 12:30:00,46.0,33.5,30.36,ESE,118,6.0,7.0,61,0.00,,OVC OVC///CB,0.00,WUHU216DAVISVP2,2013-03-09 17:30:00,
2013-03-09 12:35:00,46.6,34.1,30.35,West,269,2.0,7.0,61,0.00,,OVC OVC///CB,0.00,WUHU216DAVISVP2,2013-03-09 17:35:00,
2013-03-09 12:40:00,47.2,33.8,30.35,South,190,2.0,6.0,59,0.00,,OVC OVC///CB,0.00,WUHU216DAVISVP2,2013-03-09 17:40:00,
2013-03-09 12:45:00,47.5,33.7,30.34,SE,145,3.0,6.0,58,0.00,,OVC OVC///CB,0.00,WUHU216DAVISVP2,2013-03-09 17:45:00,
2013-03-09 12:50:00,47.8,33.5,30.34,ESE,110,4.0,6.0,57,0.00,,OVC OVC///CB,0.00,WUHU216DAVISVP2,2013-03-09 17:50:00,
2013-03-09 12:55:00,47.4,33.2,30.34,ESE,115,2.0,6.0,57,0.00,,OVC OVC///CB,0.00,WUHU216DAVISVP2,2013-03-09 17:55:00,
2013-03-09 13:00:00,47.3,34.4,30.34,SE,145,1.0,7.0,60,0.00,,OVC OVC///CB,0.00,WUHU216DAVISVP2,2013-03-09 18:00:00,
2013-03-09 13:05:00,48.5,34.6,30.33,SE,131,0.0,7.0,58,0.00,,OVC OVC///CB,0.00,WUHU216DAVISVP2,2013-03-09 18:05:00,
2013-03-09 13:10:00,49.0,34.2,30.33,SE,136,3.0,8.0,56,0.00,,OVC OVC///CB,0.00,WUHU216DAVISVP2,2013-03-09 18:10:00,
2013-03-09 13:15:00,48.0,33.7,30.33,SSE,149,3.0,8.0,57,0.00,,OVC OVC///CB,0.00,WUHU216DAVISVP2,2013-03-09 18:15:00,
2013-03-09 13:20:00,48.7,33.9,30.33,SW,235,4.0,8.0,56,0.00,,OVC OVC///CB,0.00,WUHU216DAVISVP2,2013-03-09 18:20:00,
2013-03-09 13:25:00,49.6,35.2,30.33,SSW,192,1.0,7.0,57,0.00,,OVC OVC///CB,0.00,WUHU216DAVISVP2,2013-03-09 18:25:00,
2013-03-09 13:30:00,49.5,33.8,30.33,ESE,107,2.0,7.0,54,0.00,,OVC OVC///CB,0.00,WUHU216DAVISVP2,2013-03-09 18:30:00,
2013-03-09 13:35:00,49.5,34.7,30.32,SSE,164,3.0,7.0,56,0.00,,OVC OVC///CB,0.00,WUHU216DAVISVP2,2013-03-09 18:35:00,
2013-03-09 13:40:00,49.9,34.1,30.32,SE,136,2.0,5.0,54,0.00,,OVC OVC///CB,0.00,WUHU216DAVISVP2,2013-03-09 18:40:00,
2013-03-09 13:45:00,50.4,34.6,30.32,SSE,162,2.0,5.0,54,0.00,,OVC OVC///CB,0.00,WUHU216DAVISVP2,2013-03-09 18:45:00,
2013-03-09 13:50:00,50.8,34.0,30.31,SSW,207,5.0,7.0,52,0.00,,OVC OVC///CB,0.00,WUHU216DAVISVP2,2013-03-09 18:50:00,
2013-03-09 13:55:00,50.9,34.6,30.31,SSW,193,5.0,8.0,53,0.00,,OVC OVC///CB,0.00,WUHU216DAVISVP2,2013-03-09 18:55:00,
2013-03-09 14:00:00,51.6,34.7,30.30,South,187,1.0,8.0,52,0.00,,OVC OVC///CB,0.00,WUHU216DAVISVP2,2013-03-09 19:00:00,
2013-03-09 14:05:00,51.6,34.3,30.30,SE,142,2.0,8.0,51,0.00,,OVC OVC///CB,0.00,WUHU216DAVISVP2,2013-03-09 19:05:00,
2013-03-09 14:10:00,51.4,35.1,30.30,ESE,117,2.0,8.0,53,0.00,,OVC OVC///CB,0.00,WUHU216DAVISVP2,2013-03-09 19:10:00,
2013-03-09 14:15:00,51.2,34.4,30.30,SW,221,1.0,7.0,52,0.00,,OVC OVC///CB,0.00,WUHU216DAVISVP2,2013-03-09 19:15:00,
2013-03-09 14:20:00,51.8,34.9,30.29,SSW,203,1.0,7.0,52,0.00,,OVC OVC///CB,0.00,WUHU216DAVISVP2,2013-03-09 19:20:00,
2013-03-09 14:25:00,52.1,35.2,30.29,ESE,105,2.0,6.0,52,0.00,,OVC OVC///CB,0.00,WUHU216DAVISVP2,2013-03-09 19:25:00,
2013-03-09 14:30:00,52.6,35.7,30.28,ESE,122,2.0,9.0,52,0.00,,OVC OVC///CB,0.00,WUHU216DAVISVP2,2013-03-09 19:30:00,
2013-03-09 14:35:00,53.0,35.6,30.28,SSE,153,0.0,9.0,51,0.00,,OVC OVC///CB,0.00,WUHU216DAVISVP2,2013-03-09 19:35:00,
2013-03-09 14:40:00,53.3,36.3,30.28,SW,235,1.0,8.0,52,0.00,,OVC OVC///CB,0.00,WUHU216DAVISVP2,2013-03-09 19:40:00,
2013-03-09 14:45:00,53.1,34.6,30.28,South,174,3.0,8.0,49,0.00,,OVC OVC///CB,0.00,WUHU216DAVISVP2,2013-03-09 19:45:00,
2013-03-09 14:50:00,53.5,35.5,30.27,SW,229,6.0,8.0,50,0.00,,OVC OVC///CB,0.00,WUHU216DAVISVP2,2013-03-09 19:50:00,
2013-03-09 14:55:00,53.3,33.7,30.27,South,172,2.0,9.0,47,0.00,,OVC OVC///CB,0.00,WUHU216DAVISVP2,2013-03-09 19:55:00,
2013-03-09 15:00:00,53.5,34.5,30.27,SE,136,1.0,9.0,48,0.00,,OVC OVC///CB,0.00,WUHU216DAVISVP2,2013-03-09 20:00:00,
2013-03-09 15:05:00,53.6,34.0,30.27,SSW,212,6.0,10.0,47,0.00,,OVC OVC///CB,0.00,WUHU216DAVISVP2,2013-03-09 20:05:00,
2013-03-09 15:10:00,53.9,33.7,30.26,SSE,163,4.0,10.0,46,0.00,,OVC OVC///CB,0.00,WUHU216DAVISVP2,2013-03-09 20:10:00,
2013-03-09 15:15:00,54.0,34.4,30.26,SE,131,2.0,9.0,47,0.00,,OVC OVC///CB,0.00,WUHU216DAVISVP2,2013-03-09 20:15:00,
2013-03-09 15:20:00,54.2,34.6,30.26,SW,217,1.0,9.0,47,0.00,,OVC OVC///CB,0.00,WUHU216DAVISVP2,2013-03-09 20:20:00,
2013-03-09 15:25:00,54.4,34.2,30.26,South,169,3.0,7.0,46,0.00,,OVC OVC///CB,0.00,WUHU216DAVISVP2,2013-03-09 20:25:00,
2013-03-09 15:30:00,54.5,33.7,30.26,ESE,120,4.0,7.0,45,0.00,,OVC OVC///CB,0.00,WUHU216DAVISVP2,2013-03-09 20:30:00,
2013-03-09 15:35:00,54.4,34.2,30.26,ESE,107,2.0,9.0,46,0.00,,OVC OVC///CB,0.00,WUHU216DAVISVP2,2013-03-09 20:35:00,
2013-03-09 15:40:00,54.6,33.8,30.25,SSE,162,2.0,9.0,45,0.00,,OVC OVC///CB,0.00,WUHU216DAVISVP2,2013-03-09 20:40:00,
2013-03-09 15:45:00,55.0,34.7,30.25,SSE,153,2.0,8.0,46,0.00,,OVC OVC///CB,0.00,WUHU216DAVISVP2,2013-03-09 20:45:00,
2013-03-09 15:50:00,55.8,35.5,30.25,SSE,168,2.0,8.0,46,0.00,,OVC OVC///CB,0.00,WUHU216DAVISVP2,2013-03-09 20:50:00,
2013-03-09 15:55:00,56.2,34.7,30.24,SSE,152,3.0,6.0,44,0.00,,OVC OVC///CB,0.00,WUHU216DAVISVP2,2013-03-09 20:55:00,
2013-03-09 16:00:00,56.1,35.2,30.24,SE,136,0.0,6.0,45,0.00,,OVC OVC///CB,0.00,WUHU216DAVISVP2,2013-03-09 21:00:00,
2013-03-09 16:05:00,55.8,33.7,30.24,SE,136,0.0,7.0,43,0.00,,OVC OVC///CB,0.00,WUHU216DAVISVP2,2013-03-09 21:05:00,
2013-03-09 16:10:00,55.9,33.2,30.24,ESE,111,1.0,7.0,42,0.00,,OVC OVC///CB,0.00,WUHU216DAVISVP2,2013-03-09 21:10:00,
2013-03-09 16:15:00,56.1,34.0,30.24,SSE,149,3.0,7.0,43,0.00,,OVC OVC///CB,0.00,WUHU216DAVISVP2,2013-03-09 21:15:00,
2013-03-09 16:20:00,56.7,34.6,30.24,SSE,156,5.0,7.0,43,0.00,,OVC OVC///CB,0.00,WUHU216DAVISVP2,2013-03-09 21:20:00,
2013-03-09 16:25:00,56.8,34.7,30.24,ESE,121,4.0,6.0,43,0.00,,OVC OVC///CB,0.00,WUHU216DAVISVP2,2013-03-09 21:25:00,
2013-03-09 16:31:00,56.4,33.7,30.23,SW,228,7.0,8.0,42,0.00,,OVC OVC///CB,0.00,WUHU216DAVISVP2,2013-03-09 21:31:00,
2013-03-09 16:36:00,56.1,34.6,30.23,SSW,210,2.0,9.0,44,0.00,,OVC OVC///CB,0.00,WUHU216DAVISVP2,2013-03-09 21:36:00,
2013-03-09 16:41:00,56.0,33.9,30.23,ESE,103,1.0,9.0,43,0.00,,OVC OVC///CB,0.00,WUHU216DAVISVP2,2013-03-09 21:41:00,
2013-03-09 16:46:00,56.1,34.0,30.23,ESE,120,5.0,9.0,43,0.00,,OVC OVC///CB,0.00,WUHU216DAVISVP2,2013-03-09 21:46:00,
2013-03-09 16:51:00,56.1,33.4,30.23,SSE,154,3.0,9.0,42,0.00,,OVC OVC///CB,0.00,WUHU216DAVISVP2,2013-03-09 21:51:00,
2013-03-09 16:56:00,56.2,34.1,30.23,SSE,152,2.0,6.0,43,0.00,,OVC OVC///CB,0.00,WUHU216DAVISVP2,2013-03-09 21:56:00,
2013-03-09 17:01:00,56.0,34.5,30.22,SSE,149,1.0,6.0,44,0.00,,OVC OVC///CB,0.00,WUHU216DAVISVP2,2013-03-09 22:01:00,
2013-03-09 17:06:00,55.4,34.0,30.22,SE,141,1.0,6.0,44,0.00,,OVC OVC///CB,0.00,WUHU216DAVISVP2,2013-03-09 22:06:00,
2013-03-09 17:11:00,55.0,33.6,30.22,SSE,158,2.0,5.0,44,0.00,,OVC OVC///CB,0.00,WUHU216DAVISVP2,2013-03-09 22:11:00,
2013-03-09 17:16:00,54.7,33.3,30.22,ESE,120,1.0,5.0,44,0.00,,OVC OVC///CB,0.00,WUHU216DAVISVP2,2013-03-09 22:16:00,
2013-03-09 17:21:00,54.4,34.2,30.22,SE,127,1.0,5.0,46,0.00,,OVC OVC///CB,0.00,WUHU216DAVISVP2,2013-03-09 22:21:00,
2013-03-09 17:26:00,54.4,33.6,30.22,SSE,155,0.0,5.0,45,0.00,,OVC OVC///CB,0.00,WUHU216DAVISVP2,2013-03-09 22:26:00,
2013-03-09 17:31:00,54.2,32.9,30.21,SSE,162,3.0,4.0,44,0.00,,OVC OVC///CB,0.00,WUHU216DAVISVP2,2013-03-09 22:31:00,
2013-03-09 17:36:00,53.8,33.1,30.21,SE,138,1.0,4.0,45,0.00,,OVC OVC///CB,0.00,WUHU216DAVISVP2,2013-03-09 22:36:00,
2013-03-09 17:41:00,53.5,32.8,30.21,SSE,152,0.0,4.0,45,0.00,,OVC OVC///CB,0.00,WUHU216DAVISVP2,2013-03-09 22:41:00,
2013-03-09 17:46:00,53.3,32.0,30.21,SE,128,2.0,7.0,44,0.00,,OVC OVC///CB,0.00,WUHU216DAVISVP2,2013-03-09 22:46:00,
2013-03-09 17:51:00,53.0,32.3,30.21,ESE,122,2.0,7.0,45,0.00,,OVC OVC///CB,0.00,WUHU216DAVISVP2,2013-03-09 22:51:00,
2013-03-09 17:56:00,52.8,32.2,30.21,SE,139,2.0,6.0,45,0.00,,OVC OVC///CB,0.00,WUHU216DAVISVP2,2013-03-09 22:56:00,
2013-03-09 18:01:00,52.6,32.5,30.21,SE,138,1.0,4.0,46,0.00,,OVC OVC///CB,0.00,WUHU216DAVISVP2,2013-03-09 23:01:00,
2013-03-09 18:06:00,52.4,32.4,30.21,SSE,150,1.0,3.0,46,0.00,,OVC OVC///CB,0.00,WUHU216DAVISVP2,2013-03-09 23:06:00,
2013-03-09 18:11:00,52.1,32.6,30.21,SSE,150,1.0,3.0,47,0.00,,OVC OVC///CB,0.00,WUHU216DAVISVP2,2013-03-09 23:11:00,
2013-03-09 18:16:00,51.8,32.3,30.21,SSE,158,1.0,3.0,47,0.00,,OVC OVC///CB,0.00,WUHU216DAVISVP2,2013-03-09 23:16:00,
2013-03-09 18:21:00,51.5,32.6,30.21,SE,136,0.0,2.0,48,0.00,,OVC OVC///CB,0.00,WUHU216DAVISVP2,2013-03-09 23:21:00,
2013-03-09 18:26:00,51.2,32.3,30.21,SE,138,0.0,2.0,48,0.00,,OVC OVC///CB,0.00,WUHU216DAVISVP2,2013-03-09 23:26:00,
2013-03-09 18:31:00,50.9,32.6,30.21,SSE,158,1.0,2.0,49,0.00,,OVC OVC///CB,0.00,WUHU216DAVISVP2,2013-03-09 23:31:00,
2013-03-09 18:36:00,50.7,32.4,30.21,SE,142,0.0,2.0,49,0.00,,OVC OVC///CB,0.00,WUHU216DAVISVP2,2013-03-09 23:36:00,
2013-03-09 18:41:00,50.4,32.6,30.21,SE,138,1.0,2.0,50,0.00,,OVC OVC///CB,0.00,WUHU216DAVISVP2,2013-03-09 23:41:00,
2013-03-09 18:46:00,50.2,32.4,30.20,SSE,149,1.0,2.0,50,0.00,,OVC OVC///CB,0.00,WUHU216DAVISVP2,2013-03-09 23:46:00,
2013-03-09 18:51:00,50.0,32.3,30.20,SE,132,0.0,2.0,50,0.00,,OVC OVC///CB,0.00,WUHU216DAVISVP2,2013-03-09 23:51:00,
2013-03-09 18:56:00,49.9,32.7,30.20,SE,130,2.0,2.0,51,0.00,,OVC OVC///CB,0.00,WUHU216DAVISVP2,2013-03-09 23:56:00,
2013-03-09 19:01:00,49.8,32.6,30.20,SE,135,0.0,2.0,51,0.00,,OVC OVC///CB,0.00,WUHU216DAVISVP2,2013-03-10 00:01:00,
2013-03-09 19:06:00,49.7,32.5,30.20,SSE,150,1.0,2.0,51,0.00,,OVC OVC///CB,0.00,WUHU216DAVISVP2,2013-03-10 00:06:00,
2013-03-09 19:11:00,49.5,32.3,30.21,SSE,153,1.0,2.0,51,0.00,,OVC OVC///CB,0.00,WUHU216DAVISVP2,2013-03-10 00:11:00,
2013-03-09 19:16:00,49.4,32.2,30.20,SE,145,1.0,2.0,51,0.00,,OVC OVC///CB,0.00,WUHU216DAVISVP2,2013-03-10 00:16:00,
2013-03-09 19:21:00,49.2,32.5,30.20,SE,143,1.0,2.0,52,0.00,,OVC OVC///CB,0.00,WUHU216DAVISVP2,2013-03-10 00:21:00,
2013-03-09 19:26:00,49.0,32.8,30.20,SE,131,0.0,2.0,53,0.00,,OVC OVC///CB,0.00,WUHU216DAVISVP2,2013-03-10 00:26:00,
2013-03-09 19:31:00,48.8,32.6,30.20,ESE,119,2.0,2.0,53,0.00,,OVC OVC///CB,0.00,WUHU216DAVISVP2,2013-03-10 00:31:00,
2013-03-09 19:36:00,48.6,32.4,30.19,ESE,122,3.0,5.0,53,0.00,,OVC OVC///CB,0.00,WUHU216DAVISVP2,2013-03-10 00:36:00,
2013-03-09 19:41:00,48.5,32.8,30.19,ESE,105,0.0,5.0,54,0.00,,OVC OVC///CB,0.00,WUHU216DAVISVP2,2013-03-10 00:41:00,
2013-03-09 19:46:00,48.4,32.7,30.19,SSE,160,1.0,5.0,54,0.00,,OVC OVC///CB,0.00,WUHU216DAVISVP2,2013-03-10 00:46:00,
2013-03-09 19:51:00,48.3,32.6,30.20,SE,141,0.0,5.0,54,0.00,,OVC OVC///CB,0.00,WUHU216DAVISVP2,2013-03-10 00:51:00,
2013-03-09 19:56:00,48.1,32.9,30.20,ESE,122,0.0,3.0,55,0.00,,OVC OVC///CB,0.00,WUHU216DAVISVP2,2013-03-10 00:56:00,
2013-03-09 20:01:00,47.9,32.7,30.20,ESE,122,0.0,2.0,55,0.00,,OVC OVC///CB,0.00,WUHU216DAVISVP2,2013-03-10 01:01:00,
2013-03-09 20:06:00,47.7,32.5,30.20,SE,143,0.0,2.0,55,0.00,,OVC OVC///CB,0.00,WUHU216DAVISVP2,2013-03-10 01:06:00,
2013-03-09 20:11:00,47.6,32.4,30.20,ESE,113,1.0,2.0,55,0.00,,OVC OVC///CB,0.00,WUHU216DAVISVP2,2013-03-10 01:11:00,
2013-03-09 20:16:00,47.5,32.4,30.19,ESE,105,2.0,4.0,55,0.00,,OVC OVC///CB,0.00,WUHU216DAVISVP2,2013-03-10 01:16:00,
2013-03-09 20:21:00,47.4,32.3,30.19,ESE,108,1.0,4.0,55,0.00,,OVC OVC///CB,0.00,WUHU216DAVISVP2,2013-03-10 01:21:00,
2013-03-09 20:26:00,47.3,32.6,30.19,SE,126,0.0,4.0,56,0.00,,OVC OVC///CB,0.00,WUHU216DAVISVP2,2013-03-10 01:26:00,
2013-03-09 20:31:00,47.2,32.5,30.19,SE,131,1.0,4.0,56,0.00,,OVC OVC///CB,0.00,WUHU216DAVISVP2,2013-03-10 01:31:00,
2013-03-09 20:36:00,46.9,32.7,30.19,ESE,112,2.0,3.0,57,0.00,,OVC OVC///CB,0.00,WUHU216DAVISVP2,2013-03-10 01:36:00,
2013-03-09 20:41:00,46.9,32.7,30.18,SE,130,2.0,4.0,57,0.00,,OVC OVC///CB,0.00,WUHU216DAVISVP2,2013-03-10 01:41:00,
2013-03-09 20:46:00,46.7,32.5,30.18,ESE,120,1.0,4.0,57,0.00,,OVC OVC///CB,0.00,WUHU216DAVISVP2,2013-03-10 01:46:00,
2013-03-09 20:51:00,46.7,32.5,30.18,East,101,2.0,4.0,57,0.00,,OVC OVC///CB,0.00,WUHU216DAVISVP2,2013-03-10 01:51:00,
2013-03-09 20:56:00,46.7,32.5,30.18,SE,132,0.0,4.0,57,0.00,,OVC OVC///CB,0.00,WUHU216DAVISVP2,2013-03-10 01:56:00,
2013-03-09 21:01:00,46.8,32.6,30.18,SE,142,2.0,4.0,57,0.00,,OVC OVC///CB,0.00,WUHU216DAVISVP2,2013-03-10 02:01:00,
2013-03-09 21:06:00,46.7,32.9,30.18,SE,135,1.0,4.0,58,0.00,,OVC OVC///CB,0.00,WUHU216DAVISVP2,2013-03-10 02:06:00,
2013-03-09 21:11:00,46.7,32.9,30.18,SE,129,1.0,3.0,58,0.00,,OVC OVC///CB,0.00,WUHU216DAVISVP2,2013-03-10 02:11:00,
2013-03-09 21:16:00,46.6,32.8,30.18,SE,139,1.0,3.0,58,0.00,,OVC OVC///CB,0.00,WUHU216DAVISVP2,2013-03-10 02:16:00,
2013-03-09 21:21:00,46.7,32.9,30.18,ESE,122,1.0,3.0,58,0.00,,OVC OVC///CB,0.00,WUHU216DAVISVP2,2013-03-10 02:21:00,
2013-03-09 21:26:00,46.7,32.9,30.18,SE,142,2.0,5.0,58,0.00,,OVC OVC///CB,0.00,WUHU216DAVISVP2,2013-03-10 02:26:00,
2013-03-09 21:31:00,46.9,33.1,30.18,ESE,113,2.0,5.0,58,0.00,,OVC OVC///CB,0.00,WUHU216DAVISVP2,2013-03-10 02:31:00,
2013-03-09 21:36:00,47.0,33.2,30.18,SSE,152,2.0,5.0,58,0.00,,OVC OVC///CB,0.00,WUHU216DAVISVP2,2013-03-10 02:36:00,
2013-03-09 21:41:00,47.1,32.9,30.17,ESE,122,2.0,6.0,57,0.00,,OVC OVC///CB,0.00,WUHU216DAVISVP2,2013-03-10 02:41:00,
2013-03-09 21:46:00,47.2,33.0,30.17,SSW,212,2.0,6.0,57,0.00,,OVC OVC///CB,0.00,WUHU216DAVISVP2,2013-03-10 02:46:00,
2013-03-09 21:51:00,47.3,33.1,30.18,SSE,155,3.0,5.0,57,0.00,,OVC OVC///CB,0.00,WUHU216DAVISVP2,2013-03-10 02:51:00,
2013-03-09 21:56:00,47.4,32.7,30.18,SSE,148,2.0,6.0,56,0.00,,OVC OVC///CB,0.00,WUHU216DAVISVP2,2013-03-10 02:56:00,
2013-03-09 22:01:00,47.5,32.8,30.18,SE,145,2.0,6.0,56,0.00,,OVC OVC///CB,0.00,WUHU216DAVISVP2,2013-03-10 03:01:00,
2013-03-09 22:06:00,47.5,32.8,30.18,SSE,148,1.0,6.0,56,0.00,,OVC OVC///CB,0.00,WUHU216DAVISVP2,2013-03-10 03:06:00,
2013-03-09 22:11:00,47.4,32.7,30.18,SE,145,3.0,6.0,56,0.00,,OVC OVC///CB,0.00,WUHU216DAVISVP2,2013-03-10 03:11:00,
2013-03-09 22:16:00,47.4,32.7,30.18,SE,134,2.0,5.0,56,0.00,,OVC OVC///CB,0.00,WUHU216DAVISVP2,2013-03-10 03:16:00,
2013-03-09 22:21:00,47.3,32.6,30.18,SE,141,1.0,4.0,56,0.00,,OVC OVC///CB,0.00,WUHU216DAVISVP2,2013-03-10 03:21:00,
2013-03-09 22:26:00,47.3,32.6,30.17,SSE,148,3.0,4.0,56,0.00,,OVC OVC///CB,0.00,WUHU216DAVISVP2,2013-03-10 03:26:00,
2013-03-09 22:31:00,47.4,32.7,30.17,SE,140,3.0,4.0,56,0.00,,OVC OVC///CB,0.00,WUHU216DAVISVP2,2013-03-10 03:31:00,
2013-03-09 22:36:00,47.5,32.8,30.17,ESE,117,6.0,8.0,56,0.00,,OVC OVC///CB,0.00,WUHU216DAVISVP2,2013-03-10 03:36:00,
2013-03-09 22:41:00,47.5,32.8,30.17,SE,128,3.0,8.0,56,0.00,,OVC OVC///CB,0.00,WUHU216DAVISVP2,2013-03-10 03:41:00,
2013-03-09 22:46:00,47.5,32.8,30.17,ESE,104,2.0,8.0,56,0.00,,OVC OVC///CB,0.00,WUHU216DAVISVP2,2013-03-10 03:46:00,
2013-03-09 22:51:00,47.4,32.7,30.17,SE,136,2.0,7.0,56,0.00,,OVC OVC///CB,0.00,WUHU216DAVISVP2,2013-03-10 03:51:00,
2013-03-09 22:56:00,47.3,32.6,30.17,South,169,1.0,5.0,56,0.00,,OVC OVC///CB,0.00,WUHU216DAVISVP2,2013-03-10 03:56:00,
2013-03-09 23:01:00,47.2,33.0,30.17,SE,141,1.0,5.0,57,0.00,,OVC OVC///CB,0.00,WUHU216DAVISVP2,2013-03-10 04:01:00,
2013-03-09 23:06:00,47.1,32.9,30.17,SE,142,1.0,4.0,57,0.00,,OVC OVC///CB,0.00,WUHU216DAVISVP2,2013-03-10 04:06:00,
2013-03-09 23:11:00,47.0,32.8,30.17,SE,131,1.0,4.0,57,0.00,,OVC OVC///CB,0.00,WUHU216DAVISVP2,2013-03-10 04:11:00,
2013-03-09 23:16:00,46.9,32.7,30.17,SSE,163,0.0,3.0,57,0.00,,OVC OVC///CB,0.00,WUHU216DAVISVP2,2013-03-10 04:16:00,
2013-03-09 23:21:00,46.8,32.6,30.17,SSE,147,1.0,3.0,57,0.00,,OVC OVC///CB,0.00,WUHU216DAVISVP2,2013-03-10 04:21:00,
2013-03-09 23:26:00,46.8,33.0,30.17,SE,136,1.0,3.0,58,0.00,,OVC OVC///CB,0.00,WUHU216DAVISVP2,2013-03-10 04:26:00,
2013-03-09 23:31:00,46.8,33.0,30.17,SE,143,0.0,2.0,58,0.00,,OVC OVC///CB,0.00,WUHU216DAVISVP2,2013-03-10 04:31:00,
2013-03-09 23:36:00,46.8,33.0,30.16,SSE,162,2.0,3.0,58,0.00,,OVC OVC///CB,0.00,WUHU216DAVISVP2,2013-03-10 04:36:00,
2013-03-09 23:41:00,46.8,33.0,30.16,SSE,149,1.0,4.0,58,0.00,,OVC OVC///CB,0.00,WUHU216DAVISVP2,2013-03-10 04:41:00,
2013-03-09 23:46:00,46.7,32.9,30.16,SE,146,1.0,4.0,58,0.00,,OVC OVC///CB,0.00,WUHU216DAVISVP2,2013-03-10 04:46:00,
2013-03-09 23:51:00,46.7,32.9,30.16,SSE,150,2.0,4.0,58,0.00,,OVC OVC///CB,0.00,WUHU216DAVISVP2,2013-03-10 04:51:00,
2013-03-09 23:56:00,46.6,33.3,30.15,SE,125,1.0,4.0,59,0.00,,OVC OVC///CB,0.00,WUHU216DAVISVP2,2013-03-10 04:56:00,